الصفحة الرئيسية
METAR-TAF:

METAR-TAF

مطار :

أروبا, أروبا

دائرة عرض: 12-30N, خط طول: 070-01W, ارتفاع: 18 متر

مراقبة الطقس الحالي

تاريخ ووقت الإصدار 34 دقيقة قبل الساعة 17:00UTC
ريح 17 عقدة من الشرق
درجة الحرارة 30°درجة مئوية
الرطوبة 62%
ضغط 1014 hPa
الرؤية 10 كم أو أكثر
غيوم متفرقة على ارتفاع 2800 قدم

METAR: TNCA 041700Z 08017KT 9999 SCT028 30/22 Q1014 NOSIG

زمن: 13:34 (17:34 UTC)

توقعات

تاريخ ووقت الإصدار 6ساعات و 16 دقيقة قبل الساعة 11:18UTC
التوقعات صالحة من04 الساعة 12 UTC إلى 05 الساعة 12 UTC
ريح 16 عقدة من الشرق
الرؤية 10 كم أو أكثر
غيوم متفرقة على ارتفاع 2000 قدم
مؤقت
من 04 الساعة 14 UTC إلى 04 الساعة 18 UTC
غيوم متفرقة على ارتفاع 1500 قدم
غيوم مفككة على ارتفاع 2000 قدم

TAF: TNCA 041118Z 0412/0512 08016KT 9999 SCT020 TEMPO 0414/0418 SCT015 BKN020

أرصاد الطقس والتوقعات من أكثر من 4000 مطار (تقارير الطقس للمطار METAR والتنبؤ بالطقس بالمطارTAF).

المحطات المتاحة هي النقط الصفراء والحمراء على الخريطة.

حرك المؤشر فوق النقطة لمعرفة اسم المحطة.

ثم انقر لمعرفة أرصاد وتوقعات الطقس.

لتغيير الخارطة: اضغط على الأزرار الخضراء مع رمز الصليب الأسود للتكبير. على الزر الأخضر مع شرطة للتصغير، أو على الأسهم الخضراء للخرائط المجاورة.


METAR-TAF: